createdAt,value
2019-05-01T00:00:50.117Z,977.20
2019-05-01T00:01:50.133Z,970.50
2019-05-01T00:02:50.103Z,974.10
2019-05-01T00:03:50.109Z,979.70
2019-05-01T00:04:50.075Z,959.50
2019-05-01T00:05:50.063Z,970.70
2019-05-01T00:06:50.069Z,960.60
2019-05-01T00:07:50.075Z,958.00
2019-05-01T00:08:50.034Z,967.90
2019-05-01T00:09:50.030Z,959.30
2019-05-01T00:10:50.012Z,970.00
2019-05-01T00:11:50.051Z,965.80
2019-05-01T00:12:49.988Z,970.70
2019-05-01T00:13:49.996Z,965.30
2019-05-01T00:14:49.970Z,977.30
2019-05-01T00:15:49.956Z,968.80
2019-05-01T00:16:49.961Z,967.70
2019-05-01T00:17:49.995Z,965.90
2019-05-01T00:18:49.924Z,974.80
2019-05-01T00:19:49.917Z,970.20
2019-05-01T00:20:49.928Z,973.80
2019-05-01T00:21:49.917Z,988.70
2019-05-01T00:22:49.882Z,981.80
2019-05-01T00:23:49.880Z,984.90
2019-05-01T00:24:49.872Z,995.10
2019-05-01T00:25:49.863Z,994.50
2019-05-01T00:26:49.863Z,995.60
2019-05-01T00:27:49.830Z,999.40
2019-05-01T00:28:49.850Z,999.90
2019-05-01T00:29:49.810Z,999.90
2019-05-01T00:30:49.800Z,999.90
2019-05-01T00:31:49.806Z,999.90
2019-05-01T00:32:49.778Z,993.90
2019-05-01T00:33:49.768Z,984.90
2019-05-01T00:34:49.758Z,999.90
2019-05-01T00:35:49.749Z,989.70
2019-05-01T00:36:49.758Z,996.10
2019-05-01T00:37:49.723Z,973.90
2019-05-01T00:38:49.724Z,982.70
2019-05-01T00:39:49.706Z,961.80
2019-05-01T00:40:49.691Z,958.40
2019-05-01T00:41:49.698Z,945.10
2019-05-01T00:42:49.676Z,948.40
2019-05-01T00:43:49.660Z,957.40
2019-05-01T00:44:49.659Z,962.40
2019-05-01T00:45:49.643Z,959.10
2019-05-01T00:46:49.649Z,967.30
2019-05-01T00:47:49.640Z,948.20
2019-05-01T00:48:49.606Z,951.10
2019-05-01T00:49:49.597Z,947.00
2019-05-01T00:50:49.588Z,950.40
2019-05-01T00:51:49.573Z,956.50
2019-05-01T00:52:49.582Z,966.90
2019-05-01T00:53:49.555Z,991.60
2019-05-01T00:54:49.552Z,991.40
2019-05-01T00:55:49.533Z,980.60
2019-05-01T00:56:49.549Z,998.50
2019-05-01T00:57:49.531Z,999.90
2019-05-01T00:58:49.502Z,999.90
2019-05-01T00:59:49.494Z,999.90
2019-05-01T01:00:49.484Z,999.90
2019-05-01T01:01:49.476Z,999.90
2019-05-01T01:02:49.474Z,999.90
2019-05-01T01:03:49.468Z,999.90
2019-05-01T01:04:49.463Z,999.90
2019-05-01T01:05:49.428Z,999.90
2019-05-01T01:06:49.421Z,999.90
2019-05-01T01:07:49.424Z,999.90
2019-05-01T01:08:49.398Z,999.90
2019-05-01T01:09:49.384Z,994.20
2019-05-01T01:10:49.374Z,997.90
2019-05-01T01:11:49.363Z,999.90
2019-05-01T01:12:49.370Z,999.90
2019-05-01T01:13:49.345Z,999.90
2019-05-01T01:14:49.335Z,999.90
2019-05-01T01:15:49.330Z,999.90
2019-05-01T01:16:49.307Z,999.90
2019-05-01T01:17:49.344Z,997.80
2019-05-01T01:18:49.291Z,997.10
2019-05-01T01:19:49.276Z,990.30
2019-05-01T01:20:49.268Z,974.90
2019-05-01T01:21:49.310Z,977.90
2019-05-01T01:22:49.264Z,993.70
2019-05-01T01:23:49.235Z,985.20
2019-05-01T01:24:49.226Z,960.50
2019-05-01T01:25:49.214Z,957.80
2019-05-01T01:26:49.206Z,952.60
2019-05-01T01:27:49.204Z,972.60
2019-05-01T01:28:49.181Z,961.60
2019-05-01T01:29:49.184Z,976.20
2019-05-01T01:30:56.165Z,972.40
2019-05-01T01:31:50.152Z,961.90
2019-05-01T01:32:49.158Z,982.30
2019-05-01T01:33:49.127Z,981.10
2019-05-01T01:34:49.122Z,978.60
2019-05-01T01:35:49.108Z,977.60
2019-05-01T01:36:49.104Z,978.80
2019-05-01T01:37:49.098Z,976.50
2019-05-01T01:38:49.075Z,992.00
2019-05-01T01:39:49.067Z,982.40
2019-05-01T01:40:49.051Z,989.60
2019-05-01T01:41:49.042Z,990.00
2019-05-01T01:42:49.070Z,984.50
2019-05-01T01:43:49.031Z,991.50
2019-05-01T01:44:49.007Z,999.90
2019-05-01T01:45:49.002Z,991.10
2019-05-01T01:46:48.986Z,987.60
2019-05-01T01:47:49.003Z,999.90
2019-05-01T01:48:48.984Z,999.90
2019-05-01T01:49:48.956Z,999.90
2019-05-01T01:50:48.968Z,999.90
2019-05-01T01:51:48.932Z,999.30
2019-05-01T01:52:48.921Z,999.90
2019-05-01T01:53:48.928Z,999.90
2019-05-01T01:54:48.898Z,999.90
2019-05-01T01:55:48.892Z,999.90
2019-05-01T01:56:48.896Z,999.90
2019-05-01T01:57:48.867Z,999.90
2019-05-01T01:58:48.873Z,999.90
2019-05-01T01:59:48.850Z,999.90
2019-05-01T02:00:48.832Z,999.90
2019-05-01T02:01:48.821Z,999.90
2019-05-01T02:02:48.819Z,999.90
2019-05-01T02:03:48.823Z,999.90
2019-05-01T02:04:48.809Z,999.90
2019-05-01T02:05:48.780Z,999.90
2019-05-01T02:06:48.777Z,999.90
2019-05-01T02:07:48.759Z,999.90
2019-05-01T02:08:56.301Z,999.90
2019-05-01T02:09:49.739Z,999.90
2019-05-01T02:10:48.727Z,999.90
2019-05-01T02:11:48.715Z,999.90
2019-05-01T02:12:48.726Z,999.90
2019-05-01T02:13:48.712Z,999.90
2019-05-01T02:14:48.687Z,999.90
2019-05-01T02:15:48.672Z,999.90
2019-05-01T02:16:48.678Z,999.90
2019-05-01T02:17:48.655Z,999.90
2019-05-01T02:18:48.659Z,993.90
2019-05-01T02:19:48.631Z,989.30
2019-05-01T02:20:48.626Z,999.90
2019-05-01T02:21:48.606Z,999.90
2019-05-01T02:22:48.597Z,999.90
2019-05-01T02:23:48.623Z,999.90
2019-05-01T02:24:48.574Z,999.90
2019-05-01T02:25:48.567Z,999.90
2019-05-01T02:26:48.569Z,999.90
2019-05-01T02:27:48.548Z,999.90
2019-05-01T02:28:48.551Z,999.90
2019-05-01T02:29:48.524Z,999.90
2019-05-01T02:30:48.513Z,999.90
2019-05-01T02:31:48.509Z,999.90
2019-05-01T02:32:48.514Z,999.90
2019-05-01T02:33:48.511Z,999.90
2019-05-01T02:34:48.547Z,999.90
2019-05-01T02:35:48.458Z,999.90
2019-05-01T02:36:48.453Z,999.90
2019-05-01T02:37:48.439Z,999.90
2019-05-01T02:38:48.424Z,999.90
2019-05-01T02:39:48.430Z,999.90
2019-05-01T02:40:48.407Z,999.90
2019-05-01T02:41:48.411Z,999.90
2019-05-01T02:42:48.387Z,999.90
2019-05-01T02:43:48.373Z,998.00
2019-05-01T02:44:48.383Z,999.50
2019-05-01T02:45:48.351Z,999.90
2019-05-01T02:46:48.341Z,999.90
2019-05-01T02:47:48.331Z,999.90
2019-05-01T02:48:48.318Z,999.90
2019-05-01T02:49:48.320Z,999.90
2019-05-01T02:50:48.314Z,999.90
2019-05-01T02:51:48.286Z,999.90
2019-05-01T02:52:48.274Z,999.90
2019-05-01T02:53:48.263Z,999.90
2019-05-01T02:54:48.276Z,999.90
2019-05-01T02:55:48.241Z,999.90
2019-05-01T02:56:48.247Z,999.90
2019-05-01T02:57:48.223Z,999.90
2019-05-01T02:58:48.216Z,999.90
2019-05-01T02:59:48.230Z,999.90
2019-05-01T03:00:48.190Z,999.90
2019-05-01T03:01:48.277Z,999.90
2019-05-01T03:02:48.168Z,981.80
2019-05-01T03:03:48.165Z,998.90
2019-05-01T03:04:48.160Z,995.00
2019-05-01T03:05:48.168Z,985.70
2019-05-01T03:06:48.129Z,994.50
2019-05-01T03:07:48.333Z,971.70
2019-05-01T03:08:48.104Z,976.10
2019-05-01T03:09:48.112Z,980.50
2019-05-01T03:10:48.094Z,985.40
2019-05-01T03:11:48.071Z,990.90
2019-05-01T03:12:48.059Z,986.80
2019-05-01T03:13:48.126Z,991.50
2019-05-01T03:14:48.057Z,989.50
2019-05-01T03:15:48.030Z,990.20
2019-05-01T03:16:48.017Z,999.90
2019-05-01T03:17:48.007Z,999.90
2019-05-01T03:18:48.018Z,987.40
2019-05-01T03:19:48.004Z,997.00
2019-05-01T03:20:47.973Z,998.30
2019-05-01T03:21:47.962Z,999.90
2019-05-01T03:22:47.959Z,999.90
2019-05-01T03:23:47.943Z,999.90
2019-05-01T03:24:47.961Z,999.90
2019-05-01T03:25:47.921Z,999.90
2019-05-01T03:26:47.910Z,999.90
2019-05-01T03:27:47.907Z,999.90
2019-05-01T03:28:48.109Z,999.90
2019-05-01T03:29:47.876Z,999.90
2019-05-01T03:30:47.883Z,999.90
2019-05-01T03:32:14.619Z,999.90
2019-05-01T03:32:48.848Z,994.10
2019-05-01T03:33:47.847Z,999.90
2019-05-01T03:34:52.411Z,999.90
2019-05-01T03:35:48.844Z,995.50
2019-05-01T03:36:47.800Z,999.90
2019-05-01T03:37:47.789Z,999.90
2019-05-01T03:38:47.782Z,998.10
2019-05-01T03:39:47.800Z,993.20
2019-05-01T03:40:47.784Z,999.90
2019-05-01T03:41:47.750Z,985.60
2019-05-01T03:42:47.738Z,991.00
2019-05-01T03:43:47.723Z,990.60
2019-05-01T03:44:47.788Z,989.30
2019-05-01T03:45:47.725Z,977.30
2019-05-01T03:46:47.693Z,975.60
2019-05-01T03:47:47.683Z,983.50
2019-05-01T03:48:47.688Z,948.10
2019-05-01T03:49:47.890Z,948.70
2019-05-01T03:50:47.725Z,957.80
2019-05-01T03:51:47.640Z,948.30
2019-05-01T03:52:47.633Z,962.40
2019-05-01T03:53:47.618Z,961.00
2019-05-01T03:54:47.610Z,955.60
2019-05-01T03:55:47.618Z,970.30
2019-05-01T03:56:47.617Z,975.70
2019-05-01T03:57:47.578Z,968.80
2019-05-01T03:58:47.565Z,964.40
2019-05-01T03:59:47.558Z,970.90
2019-05-01T04:00:47.573Z,969.90
2019-05-01T04:01:47.531Z,963.60
2019-05-01T04:02:47.523Z,986.10
2019-05-01T04:03:47.510Z,979.80
2019-05-01T04:04:47.501Z,993.20
2019-05-01T04:05:47.528Z,977.60
2019-05-01T04:06:47.483Z,981.50
2019-05-01T04:07:47.472Z,972.90
2019-05-01T04:08:47.482Z,973.20
2019-05-01T04:09:47.501Z,967.80
2019-05-01T04:10:47.554Z,971.90
2019-05-01T04:11:47.425Z,972.10
2019-05-01T04:12:47.444Z,970.40
2019-05-01T04:13:47.438Z,975.00
2019-05-01T04:14:47.428Z,970.10
2019-05-01T04:15:47.515Z,975.80
2019-05-01T04:16:47.508Z,961.70
2019-05-01T04:17:47.372Z,965.10
2019-05-01T04:18:47.353Z,956.80
2019-05-01T04:19:47.377Z,970.60
2019-05-01T04:20:47.363Z,966.60
2019-05-01T04:21:47.379Z,950.50
2019-05-01T04:22:47.309Z,966.30
2019-05-01T04:23:47.382Z,994.90
2019-05-01T04:24:47.338Z,973.90
2019-05-01T04:25:47.321Z,971.10
2019-05-01T04:26:47.268Z,981.10
2019-05-01T04:27:47.274Z,964.10
2019-05-01T04:28:47.248Z,935.70
2019-05-01T04:29:47.237Z,926.10
2019-05-01T04:30:47.218Z,912.30
2019-05-01T04:31:47.307Z,960.10
2019-05-01T04:32:52.730Z,999.90
2019-05-01T04:33:48.201Z,999.90
2019-05-01T04:34:47.175Z,999.90
2019-05-01T04:35:47.179Z,807.00
2019-05-01T04:36:47.172Z,737.80
2019-05-01T04:37:47.150Z,823.60
2019-05-01T04:38:47.146Z,847.00
2019-05-01T04:39:47.124Z,876.20
2019-05-01T04:40:47.113Z,874.00
2019-05-01T04:41:47.159Z,898.50
2019-05-01T04:42:47.144Z,898.00
2019-05-01T04:43:47.156Z,893.70
2019-05-01T04:44:47.139Z,901.70
2019-05-01T04:45:47.132Z,861.40
2019-05-01T04:46:47.078Z,815.30
2019-05-01T04:47:47.039Z,872.00
2019-05-01T04:48:47.033Z,840.90
2019-05-01T04:49:47.018Z,840.30
2019-05-01T04:50:47.066Z,937.90
2019-05-01T04:51:48.090Z,967.90
2019-05-01T04:52:47.024Z,899.60
2019-05-01T04:53:46.995Z,890.60
2019-05-01T04:54:46.965Z,855.80
2019-05-01T04:55:46.963Z,873.40
2019-05-01T04:56:46.960Z,999.90
2019-05-01T04:57:46.975Z,999.90
2019-05-01T04:58:46.918Z,865.80
2019-05-01T04:59:46.920Z,845.30
2019-05-01T05:00:46.904Z,900.40
2019-05-01T05:01:46.957Z,941.00
2019-05-01T05:02:46.909Z,946.00
2019-05-01T05:03:46.874Z,941.30
2019-05-01T05:04:46.861Z,913.20
2019-05-01T05:05:46.869Z,915.30
2019-05-01T05:06:46.886Z,941.00
2019-05-01T05:07:46.870Z,929.40
2019-05-01T05:08:46.821Z,948.20
2019-05-01T05:09:47.653Z,947.90
2019-05-01T05:10:46.797Z,952.30
2019-05-01T05:11:46.809Z,965.90
2019-05-01T05:12:46.838Z,952.10
2019-05-01T05:13:47.157Z,999.50
2019-05-01T05:14:47.602Z,999.90
2019-05-01T05:15:46.797Z,999.90
2019-05-01T05:16:46.755Z,999.90
2019-05-01T05:17:46.777Z,999.90
2019-05-01T05:18:46.726Z,999.90
2019-05-01T05:19:46.712Z,999.90
2019-05-01T05:20:46.679Z,999.90
2019-05-01T05:21:46.671Z,999.90
2019-05-01T05:22:46.694Z,999.90
2019-05-01T05:23:46.709Z,999.90
2019-05-01T05:24:46.638Z,999.90
2019-05-01T05:25:46.645Z,988.50
2019-05-01T05:26:46.616Z,976.20
2019-05-01T05:27:46.648Z,971.50
2019-05-01T05:28:46.597Z,958.00
2019-05-01T05:29:46.594Z,976.80
2019-05-01T05:30:46.607Z,977.30
2019-05-01T05:31:46.568Z,996.00
2019-05-01T05:32:46.625Z,986.50
2019-05-01T05:33:46.541Z,971.80
2019-05-01T05:34:46.579Z,963.30
2019-05-01T05:35:46.527Z,963.50
2019-05-01T05:36:46.542Z,982.80
2019-05-01T05:37:46.579Z,977.00
2019-05-01T05:38:46.527Z,962.70
2019-05-01T05:39:46.495Z,965.70
2019-05-01T05:40:46.466Z,961.50
2019-05-01T05:41:46.503Z,952.50
2019-05-01T05:42:46.567Z,933.60
2019-05-01T05:43:46.440Z,945.80
2019-05-01T05:44:46.434Z,945.60
2019-05-01T05:45:46.496Z,945.30
2019-05-01T05:46:46.405Z,975.40
2019-05-01T05:47:46.406Z,977.30
2019-05-01T05:48:46.459Z,969.40
2019-05-01T05:49:46.409Z,968.20
2019-05-01T05:50:46.392Z,963.80
2019-05-01T05:51:46.366Z,958.30
2019-05-01T05:52:46.370Z,964.30
2019-05-01T05:53:46.332Z,965.80
2019-05-01T05:54:46.320Z,947.50
2019-05-01T05:55:46.308Z,955.10
2019-05-01T05:56:46.307Z,954.70
2019-05-01T05:57:46.315Z,964.30
2019-05-01T05:58:46.276Z,958.10
2019-05-01T05:59:46.271Z,964.60
2019-05-01T06:00:46.269Z,950.70
2019-05-01T06:01:46.310Z,949.70
2019-05-01T06:02:46.234Z,936.30
2019-05-01T06:03:46.238Z,928.50
2019-05-01T06:04:46.269Z,935.50
2019-05-01T06:05:46.211Z,930.60
2019-05-01T06:06:46.191Z,931.40
2019-05-01T06:07:46.215Z,927.30
2019-05-01T06:08:46.186Z,939.50
2019-05-01T06:09:48.458Z,933.60
2019-05-01T06:10:46.227Z,937.90
2019-05-01T06:11:46.201Z,935.60
2019-05-01T06:12:46.766Z,924.80
2019-05-01T06:13:46.129Z,907.00
2019-05-01T06:14:46.121Z,911.50
2019-05-01T06:15:48.995Z,912.90
2019-05-01T06:16:46.986Z,899.50
2019-05-01T06:17:47.162Z,901.60
2019-05-01T06:18:46.143Z,880.10
2019-05-01T06:19:49.741Z,877.80
2019-05-01T06:20:46.037Z,876.40
2019-05-01T06:21:46.028Z,872.40
2019-05-01T06:22:46.236Z,874.90
2019-05-01T06:23:46.022Z,869.90
2019-05-01T06:24:46.008Z,871.70
2019-05-01T06:25:45.988Z,862.20
2019-05-01T06:26:45.973Z,860.70
2019-05-01T06:27:49.356Z,819.50
2019-05-01T06:28:45.966Z,834.30
2019-05-01T06:29:45.939Z,883.60
2019-05-01T06:30:47.012Z,918.90
2019-05-01T06:31:45.920Z,942.20
2019-05-01T06:32:45.906Z,966.30
2019-05-01T06:33:48.630Z,982.40
2019-05-01T06:34:46.880Z,999.90
2019-05-01T06:35:45.873Z,999.90
2019-05-01T06:36:49.528Z,999.90
2019-05-01T06:37:46.850Z,999.90
2019-05-01T06:38:45.844Z,999.90
2019-05-01T06:39:48.057Z,999.90
2019-05-01T06:40:45.820Z,999.90
2019-05-01T06:41:45.813Z,999.90
2019-05-01T06:42:45.810Z,999.90
2019-05-01T06:43:45.788Z,999.90
2019-05-01T06:44:45.796Z,999.90
2019-05-01T06:45:46.954Z,999.90
2019-05-01T06:46:46.771Z,999.90
2019-05-01T06:47:45.745Z,999.90
2019-05-01T06:48:48.810Z,999.90
2019-05-01T06:49:46.736Z,999.90
2019-05-01T06:50:45.715Z,999.90
2019-05-01T06:51:48.098Z,999.90
2019-05-01T06:52:46.687Z,999.90
2019-05-01T06:53:45.677Z,999.90
2019-05-01T06:54:47.733Z,999.90
2019-05-01T06:55:46.653Z,999.90
2019-05-01T06:56:45.648Z,999.90
2019-05-01T06:57:45.735Z,999.90
2019-05-01T06:58:45.621Z,999.90
2019-05-01T06:59:45.637Z,999.90
2019-05-01T07:00:45.613Z,999.90
2019-05-01T07:01:45.807Z,999.90
2019-05-01T07:02:45.580Z,999.90
2019-05-01T07:03:49.762Z,999.90
2019-05-01T07:04:46.573Z,999.90
2019-05-01T07:05:49.169Z,999.90
2019-05-01T07:06:46.539Z,999.90
2019-05-01T07:07:47.999Z,999.90
2019-05-01T07:08:46.514Z,999.90
2019-05-01T07:09:49.330Z,999.90
2019-05-01T07:10:46.509Z,999.90
2019-05-01T07:11:47.394Z,999.90
2019-05-01T07:12:46.471Z,999.90
2019-05-01T07:13:45.469Z,999.90
2019-05-01T07:14:47.082Z,999.90
2019-05-01T07:15:46.437Z,999.90
2019-05-01T07:16:45.429Z,999.90
2019-05-01T07:17:47.865Z,999.90
2019-05-01T07:18:45.408Z,999.90
2019-05-01T07:19:45.441Z,999.90
2019-05-01T07:20:47.291Z,999.90
2019-05-01T07:21:46.370Z,999.90
2019-05-01T07:22:45.567Z,999.90
2019-05-01T07:23:47.767Z,999.90
2019-05-01T07:24:49.008Z,999.90
2019-05-01T07:25:45.330Z,999.90
2019-05-01T07:26:48.033Z,999.90
2019-05-01T07:27:45.318Z,999.90
2019-05-01T07:28:45.295Z,999.90
2019-05-01T07:29:46.674Z,999.90
2019-05-01T07:30:45.287Z,999.90
2019-05-01T07:31:45.262Z,999.90
2019-05-01T07:32:45.261Z,999.90
2019-05-01T07:33:47.038Z,999.90
2019-05-01T07:34:48.881Z,999.90
2019-05-01T07:35:45.222Z,999.90
2019-05-01T07:36:45.566Z,999.90
2019-05-01T07:37:45.217Z,999.90
2019-05-01T07:38:45.193Z,999.90
2019-05-01T07:39:49.858Z,999.90
2019-05-01T07:40:46.185Z,999.90
2019-05-01T07:41:45.156Z,999.90
2019-05-01T07:42:48.202Z,999.90
2019-05-01T07:43:45.144Z,999.90
2019-05-01T07:44:45.129Z,999.90
2019-05-01T07:45:45.159Z,999.90
2019-05-01T07:46:48.966Z,999.90
2019-05-01T07:47:46.091Z,999.90
2019-05-01T07:48:45.079Z,999.90
2019-05-01T07:49:47.767Z,999.90
2019-05-01T07:50:46.095Z,999.90
2019-05-01T07:51:45.049Z,999.90
2019-05-01T07:52:47.763Z,999.90
2019-05-01T07:53:46.028Z,999.90
2019-05-01T07:54:47.125Z,999.90
2019-05-01T07:55:48.593Z,999.90
2019-05-01T07:56:45.076Z,999.90
2019-05-01T07:57:44.990Z,999.90
2019-05-01T07:58:47.470Z,999.90
2019-05-01T07:59:45.995Z,999.90
2019-05-01T08:00:44.974Z,999.90
2019-05-01T08:01:44.992Z,999.90
2019-05-01T08:02:44.973Z,999.90
2019-05-01T08:03:44.950Z,999.90
2019-05-01T08:04:45.626Z,999.90
2019-05-01T08:05:45.386Z,999.90
2019-05-01T08:06:44.963Z,999.90
2019-05-01T08:07:44.913Z,999.90
2019-05-01T08:08:44.868Z,999.90
2019-05-01T08:09:45.924Z,999.90
2019-05-01T08:10:45.882Z,999.90
2019-05-01T08:11:45.532Z,999.90
2019-05-01T08:12:45.250Z,999.90
2019-05-01T08:13:44.872Z,999.90
2019-05-01T08:14:47.699Z,999.90
2019-05-01T08:15:45.900Z,999.90
2019-05-01T08:16:44.840Z,999.90
2019-05-01T08:17:48.738Z,999.90
2019-05-01T08:18:45.758Z,999.90
2019-05-01T08:19:44.785Z,999.90
2019-05-01T08:20:45.842Z,999.90
2019-05-01T08:21:44.781Z,999.90
2019-05-01T08:22:44.714Z,999.90
2019-05-01T08:23:47.183Z,999.90
2019-05-01T08:24:44.704Z,999.90
2019-05-01T08:25:44.680Z,999.90
2019-05-01T08:26:45.964Z,999.90
2019-05-01T08:27:44.681Z,999.90
2019-05-01T08:28:44.691Z,999.90
2019-05-01T08:29:44.637Z,999.90
2019-05-01T08:30:47.971Z,999.90
2019-05-01T08:31:45.645Z,999.90
2019-05-01T08:32:44.662Z,999.90
2019-05-01T08:33:49.300Z,999.90
2019-05-01T08:34:49.279Z,999.90
2019-05-01T08:35:44.590Z,999.90
2019-05-01T08:36:47.313Z,999.90
2019-05-01T08:37:44.552Z,999.90
2019-05-01T08:38:44.537Z,999.90
2019-05-01T08:39:45.900Z,999.90
2019-05-01T08:40:44.565Z,999.90
2019-05-01T08:41:44.607Z,999.90
2019-05-01T08:42:44.544Z,999.90
2019-05-01T08:43:44.482Z,999.90
2019-05-01T08:44:44.509Z,999.90
2019-05-01T08:45:44.469Z,999.90
2019-05-01T08:46:49.274Z,999.90
2019-05-01T08:47:45.453Z,999.90
2019-05-01T08:48:44.433Z,999.90
2019-05-01T08:49:49.384Z,999.90
2019-05-01T08:50:45.405Z,999.90
2019-05-01T08:51:44.422Z,999.90
2019-05-01T08:52:47.396Z,999.90
2019-05-01T08:53:44.373Z,999.90
2019-05-01T08:54:44.364Z,999.90
2019-05-01T08:55:45.153Z,999.90
2019-05-01T08:56:44.360Z,999.90
2019-05-01T08:57:44.347Z,999.90
2019-05-01T08:58:44.760Z,999.90
2019-05-01T08:59:44.319Z,999.90
2019-05-01T09:00:44.299Z,999.90
2019-05-01T09:01:50.199Z,999.90
2019-05-01T09:02:45.299Z,999.90
2019-05-01T09:03:44.266Z,999.90
2019-05-01T09:04:44.261Z,999.90
2019-05-01T09:05:44.251Z,999.90
2019-05-01T09:06:45.246Z,999.90
2019-05-01T09:07:44.433Z,999.90
2019-05-01T09:08:44.235Z,999.90
2019-05-01T09:09:45.317Z,999.90
2019-05-01T09:10:44.192Z,999.90
2019-05-01T09:11:44.182Z,999.90
2019-05-01T09:12:46.893Z,999.90
2019-05-01T09:13:44.163Z,999.90
2019-05-01T09:14:44.149Z,999.90
2019-05-01T09:15:48.331Z,999.90
2019-05-01T09:16:45.124Z,999.90
2019-05-01T09:17:44.131Z,989.30
2019-05-01T09:18:44.106Z,999.00
2019-05-01T09:19:44.091Z,999.90
2019-05-01T09:20:44.156Z,995.40
2019-05-01T09:21:44.077Z,984.10
2019-05-01T09:22:44.245Z,983.60
2019-05-01T09:23:46.233Z,979.90
2019-05-01T09:24:45.052Z,983.90
2019-05-01T09:25:44.029Z,963.00
2019-05-01T09:26:45.481Z,942.50
2019-05-01T09:27:45.026Z,935.40
2019-05-01T09:28:44.039Z,950.00
2019-05-01T09:29:46.873Z,948.30
2019-05-01T09:30:44.996Z,929.90
2019-05-01T09:31:43.968Z,938.10
2019-05-01T09:32:45.857Z,950.80
2019-05-01T09:33:44.997Z,943.40
2019-05-01T09:34:43.954Z,953.20
2019-05-01T09:35:45.351Z,933.40
2019-05-01T09:36:43.933Z,932.70
2019-05-01T09:37:43.919Z,964.90
2019-05-01T09:38:43.905Z,940.00
2019-05-01T09:39:43.874Z,933.10
2019-05-01T09:40:43.865Z,915.80
2019-05-01T09:41:47.394Z,924.30
2019-05-01T09:42:43.845Z,908.10
2019-05-01T09:43:43.846Z,889.40
2019-05-01T09:44:43.821Z,894.70
2019-05-01T09:45:43.808Z,899.50
2019-05-01T09:46:43.798Z,927.50
2019-05-01T09:47:43.803Z,901.70
2019-05-01T09:48:43.793Z,896.70
2019-05-01T09:49:43.769Z,892.40
2019-05-01T09:50:43.755Z,891.70
2019-05-01T09:51:47.457Z,887.30
2019-05-01T09:52:44.749Z,894.00
2019-05-01T09:53:43.744Z,914.70
2019-05-01T09:54:46.684Z,898.80
2019-05-01T09:55:43.702Z,894.50
2019-05-01T09:56:43.709Z,890.00
2019-05-01T09:57:43.708Z,918.40
2019-05-01T09:58:43.687Z,917.30
2019-05-01T09:59:43.657Z,902.60
2019-05-01T10:00:43.643Z,908.50
2019-05-01T10:01:43.651Z,900.50
2019-05-01T10:02:43.957Z,918.10
2019-05-01T10:03:44.951Z,908.00
2019-05-01T10:04:43.617Z,937.70
2019-05-01T10:05:44.192Z,923.90
2019-05-01T10:06:47.552Z,929.10
2019-05-01T10:07:44.568Z,915.20
2019-05-01T10:08:43.603Z,917.60
2019-05-01T10:09:47.377Z,887.20
2019-05-01T10:10:44.536Z,889.80
2019-05-01T10:11:43.527Z,886.80
2019-05-01T10:12:46.864Z,909.30
2019-05-01T10:13:43.529Z,906.30
2019-05-01T10:14:43.514Z,905.00
2019-05-01T10:15:43.487Z,904.10
2019-05-01T10:16:43.479Z,888.30
2019-05-01T10:17:43.465Z,894.50
2019-05-01T10:18:43.473Z,863.10
2019-05-01T10:19:43.447Z,858.40
2019-05-01T10:20:43.429Z,856.30
2019-05-01T10:21:43.420Z,833.30
2019-05-01T10:22:43.417Z,827.40
2019-05-01T10:23:47.032Z,853.80
2019-05-01T10:24:44.439Z,827.20
2019-05-01T10:25:47.944Z,831.50
2019-05-01T10:26:43.453Z,843.50
2019-05-01T10:27:43.356Z,842.40
2019-05-01T10:28:44.982Z,817.30
2019-05-01T10:29:44.346Z,789.60
2019-05-01T10:30:43.408Z,810.00
2019-05-01T10:31:46.600Z,810.50
2019-05-01T10:32:43.328Z,782.90
2019-05-01T10:33:43.398Z,776.00
2019-05-01T10:34:44.576Z,804.90
2019-05-01T10:35:43.513Z,818.60
2019-05-01T10:36:43.292Z,849.80
2019-05-01T10:37:43.274Z,854.60
2019-05-01T10:38:45.080Z,813.30
2019-05-01T10:39:43.230Z,820.40
2019-05-01T10:40:43.243Z,797.90
2019-05-01T10:41:46.261Z,794.90
2019-05-01T10:42:43.219Z,856.50
2019-05-01T10:43:43.211Z,857.00
2019-05-01T10:44:43.170Z,839.50
2019-05-01T10:45:43.159Z,841.50
2019-05-01T10:46:43.166Z,831.80
2019-05-01T10:47:43.155Z,827.70
2019-05-01T10:48:43.126Z,838.00
2019-05-01T10:49:43.141Z,798.60
2019-05-01T10:50:43.105Z,805.90
2019-05-01T10:51:43.089Z,802.60
2019-05-01T10:52:43.080Z,796.50
2019-05-01T10:53:43.352Z,799.40
2019-05-01T10:54:43.075Z,795.80
2019-05-01T10:55:43.049Z,794.30
2019-05-01T10:56:43.042Z,792.00
2019-05-01T10:57:43.035Z,778.10
2019-05-01T10:58:43.018Z,787.60
2019-05-01T10:59:43.026Z,752.10
2019-05-01T11:00:42.992Z,772.60
2019-05-01T11:01:42.989Z,772.70
2019-05-01T11:02:42.969Z,764.40
2019-05-01T11:03:42.967Z,742.90
2019-05-01T11:04:42.970Z,756.30
2019-05-01T11:05:55.298Z,759.00
2019-05-01T11:06:43.926Z,749.50
2019-05-01T11:07:42.918Z,753.30
2019-05-01T11:08:42.905Z,769.90
2019-05-01T11:09:42.918Z,777.10
2019-05-01T11:10:42.890Z,754.30
2019-05-01T11:11:42.904Z,742.50
2019-05-01T11:12:42.906Z,753.50
2019-05-01T11:13:42.916Z,726.20
2019-05-01T11:14:43.001Z,718.60
2019-05-01T11:15:42.885Z,720.90
2019-05-01T11:16:42.816Z,727.80
2019-05-01T11:17:42.810Z,730.20
2019-05-01T11:18:42.799Z,721.70
2019-05-01T11:19:42.820Z,723.30
2019-05-01T11:20:42.776Z,725.10
2019-05-01T11:21:42.870Z,734.60
2019-05-01T11:22:42.792Z,747.90
2019-05-01T11:23:42.741Z,721.80
2019-05-01T11:24:42.749Z,737.80
2019-05-01T11:25:44.661Z,729.10
2019-05-01T11:26:42.733Z,711.60
2019-05-01T11:27:42.705Z,721.50
2019-05-01T11:28:42.764Z,713.10
2019-05-01T11:29:42.758Z,708.80
2019-05-01T11:30:42.670Z,710.70
2019-05-01T11:31:42.691Z,711.30
2019-05-01T11:32:42.643Z,713.00
2019-05-01T11:33:42.642Z,709.10
2019-05-01T11:34:42.636Z,688.30
2019-05-01T11:35:42.611Z,702.20
2019-05-01T11:36:42.821Z,684.00
2019-05-01T11:37:42.608Z,680.90
2019-05-01T11:38:42.606Z,691.40
2019-05-01T11:39:42.583Z,688.00
2019-05-01T11:40:42.556Z,683.10
2019-05-01T11:41:42.562Z,686.80
2019-05-01T11:42:42.535Z,672.90
2019-05-01T11:43:42.534Z,675.20
2019-05-01T11:44:42.527Z,689.30
2019-05-01T11:45:42.514Z,671.60
2019-05-01T11:46:42.491Z,653.70
2019-05-01T11:47:42.483Z,650.90
2019-05-01T11:48:44.403Z,648.40
2019-05-01T11:49:42.495Z,698.50
2019-05-01T11:50:42.506Z,658.90
2019-05-01T11:51:42.462Z,669.80
2019-05-01T11:52:42.460Z,677.90
2019-05-01T11:53:42.487Z,657.60
2019-05-01T11:54:42.432Z,663.90
2019-05-01T11:55:42.531Z,666.70
2019-05-01T11:56:42.442Z,676.50
2019-05-01T11:57:42.424Z,677.50
2019-05-01T11:58:42.379Z,649.90
2019-05-01T11:59:42.380Z,655.90
2019-05-01T12:00:42.431Z,655.80
2019-05-01T12:01:42.375Z,662.30
2019-05-01T12:02:42.338Z,660.70
2019-05-01T12:03:42.312Z,669.40
2019-05-01T12:04:42.323Z,666.40
2019-05-01T12:05:42.349Z,674.50
2019-05-01T12:06:42.322Z,674.10
2019-05-01T12:07:42.301Z,642.00
2019-05-01T12:08:42.549Z,658.50
2019-05-01T12:09:42.594Z,655.60
2019-05-01T12:10:42.306Z,648.30
2019-05-01T12:11:42.334Z,663.30
2019-05-01T12:12:42.216Z,672.70
2019-05-01T12:13:43.954Z,686.80
2019-05-01T12:14:42.285Z,672.80
2019-05-01T12:15:42.234Z,709.90
2019-05-01T12:16:42.214Z,678.30
2019-05-01T12:17:42.159Z,676.70
2019-05-01T12:18:42.228Z,681.50
2019-05-01T12:19:42.152Z,679.60
2019-05-01T12:20:42.268Z,701.20
2019-05-01T12:21:42.182Z,684.60
2019-05-01T12:22:42.126Z,686.50
2019-05-01T12:23:42.376Z,698.30
2019-05-01T12:24:42.086Z,725.30
2019-05-01T12:25:42.095Z,733.80
2019-05-01T12:26:42.057Z,733.10
2019-05-01T12:27:42.103Z,701.90
2019-05-01T12:28:42.065Z,727.90